sensor_id;sensor_type;location;lat;lon;timestamp;pressure;altitude;pressure_sealevel;temperature;humidity
50550;BME280;36505;52.512;13.460;2023-10-08T00:02:03;101286.72;;;12.20;100.00
50550;BME280;36505;52.512;13.460;2023-10-08T00:04:28;101299.00;;;12.17;100.00
50550;BME280;36505;52.512;13.460;2023-10-08T00:06:54;101308.09;;;12.18;100.00
50550;BME280;36505;52.512;13.460;2023-10-08T00:09:20;101321.81;;;12.18;100.00
50550;BME280;36505;52.512;13.460;2023-10-08T00:11:46;101316.31;;;12.18;100.00
50550;BME280;36505;52.512;13.460;2023-10-08T00:14:17;101273.25;;;12.07;100.00
50550;BME280;36505;52.512;13.460;2023-10-08T00:16:46;101292.22;;;12.20;100.00
50550;BME280;36505;52.512;13.460;2023-10-08T00:19:15;101307.84;;;12.19;100.00
50550;BME280;36505;52.512;13.460;2023-10-08T00:21:43;101304.28;;;12.19;100.00
50550;BME280;36505;52.512;13.460;2023-10-08T00:24:10;101301.75;;;12.17;100.00
50550;BME280;36505;52.512;13.460;2023-10-08T00:26:36;101320.97;;;12.17;100.00
50550;BME280;36505;52.512;13.460;2023-10-08T00:29:07;101312.97;;;12.16;100.00
50550;BME280;36505;52.512;13.460;2023-10-08T00:31:42;101310.50;;;12.14;100.00
50550;BME280;36505;52.512;13.460;2023-10-08T00:34:10;101313.81;;;12.16;100.00
50550;BME280;36505;52.512;13.460;2023-10-08T00:36:44;101314.88;;;12.15;100.00
50550;BME280;36505;52.512;13.460;2023-10-08T00:39:11;101319.53;;;12.15;100.00
50550;BME280;36505;52.512;13.460;2023-10-08T00:41:48;101333.25;;;12.15;100.00
50550;BME280;36505;52.512;13.460;2023-10-08T00:44:14;101334.38;;;12.14;100.00
50550;BME280;36505;52.512;13.460;2023-10-08T00:46:58;101337.69;;;12.16;100.00
50550;BME280;36505;52.512;13.460;2023-10-08T00:49:27;101337.13;;;12.14;100.00
50550;BME280;36505;52.512;13.460;2023-10-08T00:52:10;101346.41;;;12.13;100.00
50550;BME280;36505;52.512;13.460;2023-10-08T00:54:40;101339.25;;;12.12;100.00
50550;BME280;36505;52.512;13.460;2023-10-08T00:57:28;101340.09;;;12.12;100.00
50550;BME280;36505;52.512;13.460;2023-10-08T00:59:55;101342.59;;;12.14;100.00
50550;BME280;36505;52.512;13.460;2023-10-08T01:02:26;101345.34;;;12.14;100.00
50550;BME280;36505;52.512;13.460;2023-10-08T01:04:54;101353.59;;;12.14;100.00
50550;BME280;36505;52.512;13.460;2023-10-08T01:07:25;101357.75;;;12.16;100.00
50550;BME280;36505;52.512;13.460;2023-10-08T01:09:50;101351.91;;;12.13;100.00
50550;BME280;36505;52.512;13.460;2023-10-08T01:12:23;101339.72;;;12.09;100.00
50550;BME280;36505;52.512;13.460;2023-10-08T01:14:51;101338.31;;;12.06;100.00
50550;BME280;36505;52.512;13.460;2023-10-08T01:17:20;101349.28;;;12.06;100.00
50550;BME280;36505;52.512;13.460;2023-10-08T01:19:49;101352.03;;;12.06;100.00
50550;BME280;36505;52.512;13.460;2023-10-08T01:22:35;101360.00;;;12.08;100.00
50550;BME280;36505;52.512;13.460;2023-10-08T01:25:04;101361.69;;;12.09;100.00
50550;BME280;36505;52.512;13.460;2023-10-08T01:27:31;101358.34;;;12.07;100.00
50550;BME280;36505;52.512;13.460;2023-10-08T01:30:00;101356.69;;;12.06;100.00
50550;BME280;36505;52.512;13.460;2023-10-08T01:32:43;101355.00;;;12.05;100.00
50550;BME280;36505;52.512;13.460;2023-10-08T01:35:09;101370.66;;;12.04;100.00
50550;BME280;36505;52.512;13.460;2023-10-08T01:37:48;101370.03;;;12.02;100.00
50550;BME280;36505;52.512;13.460;2023-10-08T01:40:15;101378.88;;;12.04;100.00
50550;BME280;36505;52.512;13.460;2023-10-08T01:42:43;101372.09;;;12.07;100.00
50550;BME280;36505;52.512;13.460;2023-10-08T01:45:08;101375.66;;;12.07;100.00
50550;BME280;36505;52.512;13.460;2023-10-08T01:47:35;101386.03;;;12.05;100.00
50550;BME280;36505;52.512;13.460;2023-10-08T01:50:01;101383.75;;;12.02;100.00
50550;BME280;36505;52.512;13.460;2023-10-08T01:52:33;101387.56;;;12.01;100.00
50550;BME280;36505;52.512;13.460;2023-10-08T01:54:59;101404.03;;;12.01;100.00
50550;BME280;36505;52.512;13.460;2023-10-08T01:57:25;101402.13;;;12.02;100.00
50550;BME280;36505;52.512;13.460;2023-10-08T01:59:50;101395.69;;;11.96;100.00
50550;BME280;36505;52.512;13.460;2023-10-08T02:02:16;101415.28;;;12.00;100.00
50550;BME280;36505;52.512;13.460;2023-10-08T02:04:41;101418.03;;;12.00;100.00
50550;BME280;36505;52.512;13.460;2023-10-08T02:07:07;101404.53;;;11.98;100.00
50550;BME280;36505;52.512;13.460;2023-10-08T02:09:39;101408.34;;;11.97;100.00
50550;BME280;36505;52.512;13.460;2023-10-08T02:12:06;101408.56;;;11.96;100.00
50550;BME280;36505;52.512;13.460;2023-10-08T02:14:31;101411.31;;;11.96;100.00
50550;BME280;36505;52.512;13.460;2023-10-08T02:17:01;101421.47;;;11.95;100.00
50550;BME280;36505;52.512;13.460;2023-10-08T02:19:31;101409.66;;;11.95;100.00
50550;BME280;36505;52.512;13.460;2023-10-08T02:21:57;101441.75;;;11.94;100.00
50550;BME280;36505;52.512;13.460;2023-10-08T02:24:24;101443.41;;;11.95;100.00
50550;BME280;36505;52.512;13.460;2023-10-08T02:26:58;101452.50;;;11.96;100.00
50550;BME280;36505;52.512;13.460;2023-10-08T02:29:30;101449.16;;;11.94;100.00
50550;BME280;36505;52.512;13.460;2023-10-08T02:31:56;101464.53;;;11.95;100.00
50550;BME280;36505;52.512;13.460;2023-10-08T02:34:22;101481.72;;;11.90;100.00
50550;BME280;36505;52.512;13.460;2023-10-08T02:36:48;101480.03;;;11.89;100.00
50550;BME280;36505;52.512;13.460;2023-10-08T02:39:13;101480.88;;;11.90;100.00
50550;BME280;36505;52.512;13.460;2023-10-08T02:41:48;101473.50;;;11.90;100.00
50550;BME280;36505;52.512;13.460;2023-10-08T02:44:14;101464.06;;;11.86;100.00
50550;BME280;36505;52.512;13.460;2023-10-08T02:46:44;101474.22;;;11.85;100.00
50550;BME280;36505;52.512;13.460;2023-10-08T02:49:13;101472.88;;;11.88;100.00
50550;BME280;36505;52.512;13.460;2023-10-08T02:51:42;101474.78;;;11.87;100.00
50550;BME280;36505;52.512;13.460;2023-10-08T02:54:10;101470.13;;;11.88;100.00
50550;BME280;36505;52.512;13.460;2023-10-08T02:56:49;101479.69;;;11.85;100.00
50550;BME280;36505;52.512;13.460;2023-10-08T02:59:23;101477.41;;;11.82;100.00
50550;BME280;36505;52.512;13.460;2023-10-08T03:01:49;101467.50;;;11.81;100.00
50550;BME280;36505;52.512;13.460;2023-10-08T03:04:15;101474.88;;;11.81;100.00
50550;BME280;36505;52.512;13.460;2023-10-08T03:06:47;101468.56;;;11.80;100.00
50550;BME280;36505;52.512;13.460;2023-10-08T03:09:20;101459.75;;;11.78;100.00
50550;BME280;36505;52.512;13.460;2023-10-08T03:11:51;101467.59;;;11.75;100.00
50550;BME280;36505;52.512;13.460;2023-10-08T03:14:17;101466.53;;;11.76;100.00
50550;BME280;36505;52.512;13.460;2023-10-08T03:16:53;101469.50;;;11.74;100.00
50550;BME280;36505;52.512;13.460;2023-10-08T03:19:21;101477.50;;;11.76;100.00
50550;BME280;36505;52.512;13.460;2023-10-08T03:21:48;101493.53;;;11.79;100.00
50550;BME280;36505;52.512;13.460;2023-10-08T03:24:19;101494.81;;;11.76;100.00
50550;BME280;36505;52.512;13.460;2023-10-08T03:27:00;101489.78;;;11.73;100.00
50550;BME280;36505;52.512;13.460;2023-10-08T03:29:35;101484.28;;;11.73;100.00
50550;BME280;36505;52.512;13.460;2023-10-08T03:32:14;101510.06;;;11.72;100.00
50550;BME280;36505;52.512;13.460;2023-10-08T03:34:47;101500.13;;;11.71;100.00
50550;BME280;36505;52.512;13.460;2023-10-08T03:37:19;101521.25;;;11.71;100.00
50550;BME280;36505;52.512;13.460;2023-10-08T03:39:49;101516.38;;;11.73;100.00
50550;BME280;36505;52.512;13.460;2023-10-08T03:42:23;101522.94;;;11.72;100.00
50550;BME280;36505;52.512;13.460;2023-10-08T03:44:52;101525.66;;;11.72;100.00
50550;BME280;36505;52.512;13.460;2023-10-08T03:47:21;101538.78;;;11.70;100.00
50550;BME280;36505;52.512;13.460;2023-10-08T03:49:54;101542.59;;;11.69;100.00
50550;BME280;36505;52.512;13.460;2023-10-08T03:52:20;101545.56;;;11.67;100.00
50550;BME280;36505;52.512;13.460;2023-10-08T03:54:49;101557.38;;;11.68;100.00
50550;BME280;36505;52.512;13.460;2023-10-08T03:57:24;101565.84;;;11.66;100.00
50550;BME280;36505;52.512;13.460;2023-10-08T04:00:10;101572.63;;;11.64;100.00
50550;BME280;36505;52.512;13.460;2023-10-08T04:02:46;101574.53;;;11.63;100.00
50550;BME280;36505;52.512;13.460;2023-10-08T04:05:23;101580.25;;;11.62;100.00
50550;BME280;36505;52.512;13.460;2023-10-08T04:08:06;101588.69;;;11.60;100.00
50550;BME280;36505;52.512;13.460;2023-10-08T04:10:42;101582.41;;;11.60;100.00
50550;BME280;36505;52.512;13.460;2023-10-08T04:13:08;101580.09;;;11.57;100.00
50550;BME280;36505;52.512;13.460;2023-10-08T04:15:37;101574.84;;;11.55;100.00
50550;BME280;36505;52.512;13.460;2023-10-08T04:18:09;101577.59;;;11.55;100.00
50550;BME280;36505;52.512;13.460;2023-10-08T04:20:35;101593.47;;;11.53;100.00
50550;BME280;36505;52.512;13.460;2023-10-08T04:25:31;101612.25;;;11.49;100.00
50550;BME280;36505;52.512;13.460;2023-10-08T04:27:58;101611.66;;;11.47;100.00
50550;BME280;36505;52.512;13.460;2023-10-08T04:30:32;101612.97;;;11.45;99.87
50550;BME280;36505;52.512;13.460;2023-10-08T04:33:02;101632.38;;;11.43;99.87
50550;BME280;36505;52.512;13.460;2023-10-08T04:35:39;101626.50;;;11.40;100.00
50550;BME280;36505;52.512;13.460;2023-10-08T04:38:14;101635.56;;;11.40;100.00
50550;BME280;36505;52.512;13.460;2023-10-08T04:40:43;101659.19;;;11.41;100.00
50550;BME280;36505;52.512;13.460;2023-10-08T04:43:25;101644.03;;;11.39;100.00
50550;BME280;36505;52.512;13.460;2023-10-08T04:45:53;101638.78;;;11.37;100.00
50550;BME280;36505;52.512;13.460;2023-10-08T04:48:18;101629.94;;;11.35;99.84
50550;BME280;36505;52.512;13.460;2023-10-08T04:50:47;101643.03;;;11.33;99.88
50550;BME280;36505;52.512;13.460;2023-10-08T04:53:16;101637.78;;;11.32;100.00
50550;BME280;36505;52.512;13.460;2023-10-08T04:55:42;101635.50;;;11.29;100.00
50550;BME280;36505;52.512;13.460;2023-10-08T04:58:14;101637.25;;;11.23;99.99
50550;BME280;36505;52.512;13.460;2023-10-08T05:00:46;101646.16;;;11.19;99.93
50550;BME280;36505;52.512;13.460;2023-10-08T05:03:24;101646.38;;;11.17;100.00
50550;BME280;36505;52.512;13.460;2023-10-08T05:05:57;101663.88;;;11.16;100.00
50550;BME280;36505;52.512;13.460;2023-10-08T05:08:34;101672.31;;;11.15;100.00
50550;BME280;36505;52.512;13.460;2023-10-08T05:11:18;101681.63;;;11.14;100.00
50550;BME280;36505;52.512;13.460;2023-10-08T05:13:50;101682.91;;;11.11;100.00
50550;BME280;36505;52.512;13.460;2023-10-08T05:16:27;101685.25;;;11.07;100.00
50550;BME280;36505;52.512;13.460;2023-10-08T05:19:09;101678.78;;;11.02;100.00
50550;BME280;36505;52.512;13.460;2023-10-08T05:21:53;101691.84;;;11.00;100.00
50550;BME280;36505;52.512;13.460;2023-10-08T05:24:30;101682.19;;;10.97;100.00
50550;BME280;36505;52.512;13.460;2023-10-08T05:27:04;101701.59;;;10.96;100.00
50550;BME280;36505;52.512;13.460;2023-10-08T05:29:48;101717.41;;;10.94;100.00
50550;BME280;36505;52.512;13.460;2023-10-08T05:32:32;101723.97;;;10.93;100.00
50550;BME280;36505;52.512;13.460;2023-10-08T05:35:09;101709.88;;;10.89;100.00
50550;BME280;36505;52.512;13.460;2023-10-08T05:37:53;101720.63;;;10.91;100.00
50550;BME280;36505;52.512;13.460;2023-10-08T05:40:37;101731.34;;;10.92;100.00
50550;BME280;36505;52.512;13.460;2023-10-08T05:43:24;101727.53;;;10.93;100.00
50550;BME280;36505;52.512;13.460;2023-10-08T05:46:23;101741.88;;;10.95;100.00
50550;BME280;36505;52.512;13.460;2023-10-08T05:48:48;101741.19;;;11.00;100.00
50550;BME280;36505;52.512;13.460;2023-10-08T05:51:40;101745.78;;;11.06;100.00
50550;BME280;36505;52.512;13.460;2023-10-08T05:54:19;101739.69;;;11.04;100.00
50550;BME280;36505;52.512;13.460;2023-10-08T05:56:58;101739.03;;;11.08;100.00
50550;BME280;36505;52.512;13.460;2023-10-08T05:59:37;101748.88;;;11.16;100.00
50550;BME280;36505;52.512;13.460;2023-10-08T06:02:32;101776.44;;;11.21;99.67
50550;BME280;36505;52.512;13.460;2023-10-08T06:04:58;101772.38;;;11.30;99.65
50550;BME280;36505;52.512;13.460;2023-10-08T06:07:46;101780.47;;;11.43;99.76
50550;BME280;36505;52.512;13.460;2023-10-08T06:10:15;101789.84;;;11.54;98.61
50550;BME280;36505;52.512;13.460;2023-10-08T06:13:11;101800.66;;;11.74;98.47
50550;BME280;36505;52.512;13.460;2023-10-08T06:16:06;101802.53;;;11.98;96.28
50550;BME280;36505;52.512;13.460;2023-10-08T06:18:33;101810.53;;;12.18;95.12
50550;BME280;36505;52.512;13.460;2023-10-08T06:21:03;101820.09;;;12.34;94.00
50550;BME280;36505;52.512;13.460;2023-10-08T06:23:39;101837.88;;;12.79;92.15
50550;BME280;36505;52.512;13.460;2023-10-08T06:26:07;101852.16;;;12.99;90.03
50550;BME280;36505;52.512;13.460;2023-10-08T06:28:37;101843.06;;;12.99;89.91
50550;BME280;36505;52.512;13.460;2023-10-08T06:31:04;101836.28;;;13.01;88.85
50550;BME280;36505;52.512;13.460;2023-10-08T06:33:32;101845.28;;;13.09;88.11
50550;BME280;36505;52.512;13.460;2023-10-08T06:36:02;101853.13;;;13.23;87.61
50550;BME280;36505;52.512;13.460;2023-10-08T06:38:39;101857.94;;;13.39;86.64
50550;BME280;36505;52.512;13.460;2023-10-08T06:41:07;101856.41;;;14.02;83.60
50550;BME280;36505;52.512;13.460;2023-10-08T06:43:49;101862.41;;;14.85;79.80
50550;BME280;36505;52.512;13.460;2023-10-08T06:46:16;101869.53;;;15.43;76.77
50550;BME280;36505;52.512;13.460;2023-10-08T06:48:45;101858.94;;;15.85;73.74
50550;BME280;36505;52.512;13.460;2023-10-08T06:51:12;101872.91;;;16.34;72.24
50550;BME280;36505;52.512;13.460;2023-10-08T06:53:44;101884.34;;;16.81;68.92
50550;BME280;36505;52.512;13.460;2023-10-08T06:56:14;101887.69;;;17.31;68.13
50550;BME280;36505;52.512;13.460;2023-10-08T06:58:41;101886.56;;;17.59;66.17
50550;BME280;36505;52.512;13.460;2023-10-08T07:01:16;101888.31;;;17.38;65.27
50550;BME280;36505;52.512;13.460;2023-10-08T07:03:56;101898.09;;;17.78;64.51
50550;BME280;36505;52.512;13.460;2023-10-08T07:06:29;101893.84;;;17.65;62.73
50550;BME280;36505;52.512;13.460;2023-10-08T07:09:01;101896.06;;;17.68;62.18
50550;BME280;36505;52.512;13.460;2023-10-08T07:11:31;101898.03;;;18.05;60.39
50550;BME280;36505;52.512;13.460;2023-10-08T07:14:03;101897.13;;;18.36;59.99
50550;BME280;36505;52.512;13.460;2023-10-08T07:16:30;101904.53;;;18.63;57.95
50550;BME280;36505;52.512;13.460;2023-10-08T07:18:56;101911.81;;;18.84;56.50
50550;BME280;36505;52.512;13.460;2023-10-08T07:21:27;101917.75;;;19.18;56.51
50550;BME280;36505;52.512;13.460;2023-10-08T07:24:05;101915.88;;;19.44;53.71
50550;BME280;36505;52.512;13.460;2023-10-08T07:26:35;101929.00;;;19.63;53.75
50550;BME280;36505;52.512;13.460;2023-10-08T07:29:05;101927.03;;;19.99;53.45
50550;BME280;36505;52.512;13.460;2023-10-08T07:31:35;101924.53;;;20.38;52.47
50550;BME280;36505;52.512;13.460;2023-10-08T07:34:02;101925.84;;;20.61;51.94
50550;BME280;36505;52.512;13.460;2023-10-08T07:36:54;101931.53;;;21.05;49.59
50550;BME280;36505;52.512;13.460;2023-10-08T07:39:21;101926.88;;;21.45;48.00
50550;BME280;36505;52.512;13.460;2023-10-08T07:41:54;101937.44;;;21.87;46.45
50550;BME280;36505;52.512;13.460;2023-10-08T07:44:21;101936.69;;;22.15;46.70
50550;BME280;36505;52.512;13.460;2023-10-08T07:46:51;101939.63;;;22.53;45.55
50550;BME280;36505;52.512;13.460;2023-10-08T07:49:17;101936.38;;;22.69;45.09
50550;BME280;36505;52.512;13.460;2023-10-08T07:51:43;101952.66;;;23.10;44.33
50550;BME280;36505;52.512;13.460;2023-10-08T07:54:21;101953.78;;;23.51;43.35
50550;BME280;36505;52.512;13.460;2023-10-08T07:56:53;101951.53;;;23.72;43.05
50550;BME280;36505;52.512;13.460;2023-10-08T07:59:25;101950.88;;;23.94;41.03
50550;BME280;36505;52.512;13.460;2023-10-08T08:01:50;101959.25;;;24.13;40.29
50550;BME280;36505;52.512;13.460;2023-10-08T08:04:19;101964.31;;;24.43;38.75
50550;BME280;36505;52.512;13.460;2023-10-08T08:06:51;101964.97;;;24.67;38.16
50550;BME280;36505;52.512;13.460;2023-10-08T08:09:17;101968.81;;;24.85;38.33
50550;BME280;36505;52.512;13.460;2023-10-08T08:11:46;101967.50;;;25.10;37.70
50550;BME280;36505;52.512;13.460;2023-10-08T08:14:15;101970.84;;;25.48;35.33
50550;BME280;36505;52.512;13.460;2023-10-08T08:16:50;101976.03;;;25.68;36.22
50550;BME280;36505;52.512;13.460;2023-10-08T08:19:16;101971.69;;;26.07;35.31
50550;BME280;36505;52.512;13.460;2023-10-08T08:21:43;101974.72;;;26.32;34.75
50550;BME280;36505;52.512;13.460;2023-10-08T08:24:12;101976.59;;;26.68;33.38
50550;BME280;36505;52.512;13.460;2023-10-08T08:26:39;101992.97;;;26.83;33.20
50550;BME280;36505;52.512;13.460;2023-10-08T08:29:06;101975.28;;;27.13;32.57
50550;BME280;36505;52.512;13.460;2023-10-08T08:31:35;101984.25;;;27.33;31.81
50550;BME280;36505;52.512;13.460;2023-10-08T08:34:05;101987.44;;;27.57;31.47
50550;BME280;36505;52.512;13.460;2023-10-08T08:36:39;101989.13;;;27.75;30.16
50550;BME280;36505;52.512;13.460;2023-10-08T08:39:11;101996.75;;;27.83;31.44
50550;BME280;36505;52.512;13.460;2023-10-08T08:41:37;101994.78;;;27.84;28.64
50550;BME280;36505;52.512;13.460;2023-10-08T08:44:03;101996.75;;;27.92;29.20
50550;BME280;36505;52.512;13.460;2023-10-08T08:46:35;102007.19;;;28.09;29.09
50550;BME280;36505;52.512;13.460;2023-10-08T08:49:03;102014.41;;;28.53;28.12
50550;BME280;36505;52.512;13.460;2023-10-08T08:51:33;102017.59;;;28.43;27.48
50550;BME280;36505;52.512;13.460;2023-10-08T08:54:00;102024.56;;;28.45;27.82
50550;BME280;36505;52.512;13.460;2023-10-08T08:56:33;102012.00;;;28.89;27.29
50550;BME280;36505;52.512;13.460;2023-10-08T08:58:59;102010.88;;;29.20;26.97
50550;BME280;36505;52.512;13.460;2023-10-08T09:01:26;102016.22;;;29.13;25.78
50550;BME280;36505;52.512;13.460;2023-10-08T09:03:58;102023.34;;;29.10;25.62
50550;BME280;36505;52.512;13.460;2023-10-08T09:06:26;102031.63;;;29.53;25.56
50550;BME280;36505;52.512;13.460;2023-10-08T09:08:53;102024.38;;;29.64;24.65
50550;BME280;36505;52.512;13.460;2023-10-08T09:11:21;102019.13;;;30.04;25.26
50550;BME280;36505;52.512;13.460;2023-10-08T09:13:47;102021.25;;;30.40;24.62
50550;BME280;36505;52.512;13.460;2023-10-08T09:16:16;102030.94;;;30.84;23.86
50550;BME280;36505;52.512;13.460;2023-10-08T09:18:43;102027.47;;;31.24;23.00
50550;BME280;36505;52.512;13.460;2023-10-08T09:21:11;102028.84;;;31.66;23.11
50550;BME280;36505;52.512;13.460;2023-10-08T09:23:41;102038.03;;;31.75;22.77
50550;BME280;36505;52.512;13.460;2023-10-08T09:26:13;102038.06;;;32.15;21.93
50550;BME280;36505;52.512;13.460;2023-10-08T09:28:47;102029.84;;;32.54;21.47
50550;BME280;36505;52.512;13.460;2023-10-08T09:31:17;102035.03;;;32.80;20.81
50550;BME280;36505;52.512;13.460;2023-10-08T09:33:43;102033.09;;;32.84;20.06
50550;BME280;36505;52.512;13.460;2023-10-08T09:36:18;102030.81;;;32.89;20.47
50550;BME280;36505;52.512;13.460;2023-10-08T09:38:45;102030.84;;;33.21;20.24
50550;BME280;36505;52.512;13.460;2023-10-08T09:41:14;102033.19;;;33.50;20.18
50550;BME280;36505;52.512;13.460;2023-10-08T09:43:40;102036.88;;;34.05;19.22
50550;BME280;36505;52.512;13.460;2023-10-08T09:46:18;102039.28;;;34.22;19.23
50550;BME280;36505;52.512;13.460;2023-10-08T09:48:49;102044.00;;;34.34;19.64
50550;BME280;36505;52.512;13.460;2023-10-08T09:51:16;102042.19;;;34.26;19.23
50550;BME280;36505;52.512;13.460;2023-10-08T09:54:00;102042.34;;;34.52;18.85
50550;BME280;36505;52.512;13.460;2023-10-08T09:56:29;102049.91;;;34.67;18.03
50550;BME280;36505;52.512;13.460;2023-10-08T09:58:56;102046.63;;;34.84;17.56
50550;BME280;36505;52.512;13.460;2023-10-08T10:01:25;102052.91;;;34.94;17.16
50550;BME280;36505;52.512;13.460;2023-10-08T10:03:52;102052.31;;;34.84;17.07
50550;BME280;36505;52.512;13.460;2023-10-08T10:06:18;102050.28;;;34.85;17.16
50550;BME280;36505;52.512;13.460;2023-10-08T10:08:45;102047.25;;;34.97;17.41
50550;BME280;36505;52.512;13.460;2023-10-08T10:11:11;102050.72;;;35.10;16.75
50550;BME280;36505;52.512;13.460;2023-10-08T10:13:45;102057.53;;;34.60;17.70
50550;BME280;36505;52.512;13.460;2023-10-08T10:16:18;102059.69;;;34.08;17.97
50550;BME280;36505;52.512;13.460;2023-10-08T10:18:45;102060.06;;;33.72;18.17
50550;BME280;36505;52.512;13.460;2023-10-08T10:23:47;102056.00;;;32.91;17.48
50550;BME280;36505;52.512;13.460;2023-10-08T10:31:47;102064.53;;;32.63;18.83
50550;BME280;36505;52.512;13.460;2023-10-08T10:34:18;102065.31;;;31.68;19.22
50550;BME280;36505;52.512;13.460;2023-10-08T10:36:45;102053.75;;;31.12;19.54
50550;BME280;36505;52.512;13.460;2023-10-08T10:39:14;102067.28;;;31.19;19.05
50550;BME280;36505;52.512;13.460;2023-10-08T10:41:47;102077.69;;;31.15;19.25
50550;BME280;36505;52.512;13.460;2023-10-08T10:44:14;102074.50;;;31.16;18.52
50550;BME280;36505;52.512;13.460;2023-10-08T10:46:41;102069.56;;;30.80;18.18
50550;BME280;36505;52.512;13.460;2023-10-08T10:49:11;102076.88;;;30.48;17.89
50550;BME280;36505;52.512;13.460;2023-10-08T10:51:56;102079.63;;;29.74;18.40
50550;BME280;36505;52.512;13.460;2023-10-08T10:54:25;102077.69;;;29.36;19.33
50550;BME280;36505;52.512;13.460;2023-10-08T10:56:52;102077.16;;;28.96;19.95
50550;BME280;36505;52.512;13.460;2023-10-08T10:59:33;102073.75;;;28.13;20.66
50550;BME280;36505;52.512;13.460;2023-10-08T11:02:04;102084.47;;;27.20;21.98
50550;BME280;36505;52.512;13.460;2023-10-08T11:04:36;102069.06;;;26.33;23.34
50550;BME280;36505;52.512;13.460;2023-10-08T11:07:15;102071.63;;;25.31;23.40
50550;BME280;36505;52.512;13.460;2023-10-08T11:09:43;102071.91;;;24.56;22.73
50550;BME280;36505;52.512;13.460;2023-10-08T11:12:10;102064.59;;;23.85;23.89
50550;BME280;36505;52.512;13.460;2023-10-08T11:14:42;102071.72;;;23.30;24.90
50550;BME280;36505;52.512;13.460;2023-10-08T11:17:17;102061.75;;;22.71;26.32
50550;BME280;36505;52.512;13.460;2023-10-08T11:19:43;102064.34;;;22.28;25.88
50550;BME280;36505;52.512;13.460;2023-10-08T11:22:12;102068.50;;;21.97;26.59
50550;BME280;36505;52.512;13.460;2023-10-08T11:24:42;102069.72;;;21.65;27.43
50550;BME280;36505;52.512;13.460;2023-10-08T11:27:10;102058.19;;;21.33;27.59
50550;BME280;36505;52.512;13.460;2023-10-08T11:29:51;102075.53;;;21.00;28.05
50550;BME280;36505;52.512;13.460;2023-10-08T11:32:22;102058.59;;;20.71;28.09
50550;BME280;36505;52.512;13.460;2023-10-08T11:35:00;102073.91;;;20.43;28.61
50550;BME280;36505;52.512;13.460;2023-10-08T11:37:29;102078.88;;;20.16;30.14
50550;BME280;36505;52.512;13.460;2023-10-08T11:39:56;102076.59;;;19.82;30.16
50550;BME280;36505;52.512;13.460;2023-10-08T11:42:24;102074.44;;;19.32;29.98
50550;BME280;36505;52.512;13.460;2023-10-08T11:45:10;102067.56;;;18.92;30.52
50550;BME280;36505;52.512;13.460;2023-10-08T11:47:53;102068.34;;;18.83;31.29
50550;BME280;36505;52.512;13.460;2023-10-08T11:50:27;102059.31;;;18.61;30.10
50550;BME280;36505;52.512;13.460;2023-10-08T11:53:02;102059.19;;;18.19;31.72
50550;BME280;36505;52.512;13.460;2023-10-08T11:55:35;102058.97;;;17.93;33.13
50550;BME280;36505;52.512;13.460;2023-10-08T11:58:06;102065.19;;;17.79;33.22
50550;BME280;36505;52.512;13.460;2023-10-08T12:00:43;102064.06;;;17.58;34.33
50550;BME280;36505;52.512;13.460;2023-10-08T12:03:17;102064.47;;;17.45;34.73
50550;BME280;36505;52.512;13.460;2023-10-08T12:05:47;102067.84;;;17.47;34.96
50550;BME280;36505;52.512;13.460;2023-10-08T12:08:13;102062.59;;;17.50;35.25
50550;BME280;36505;52.512;13.460;2023-10-08T12:10:42;102069.56;;;17.53;36.32
50550;BME280;36505;52.512;13.460;2023-10-08T12:13:08;102073.16;;;17.53;35.82
50550;BME280;36505;52.512;13.460;2023-10-08T12:15:35;102070.59;;;17.47;34.96
50550;BME280;36505;52.512;13.460;2023-10-08T12:18:04;102076.38;;;17.45;35.78
50550;BME280;36505;52.512;13.460;2023-10-08T12:20:48;102068.91;;;17.46;36.48
50550;BME280;36505;52.512;13.460;2023-10-08T12:23:14;102073.53;;;17.40;37.49
50550;BME280;36505;52.512;13.460;2023-10-08T12:25:52;102061.66;;;17.40;37.58
50550;BME280;36505;52.512;13.460;2023-10-08T12:28:18;102059.38;;;17.36;37.51
50550;BME280;36505;52.512;13.460;2023-10-08T12:30:44;102046.88;;;17.34;37.86
50550;BME280;36505;52.512;13.460;2023-10-08T12:33:10;102049.59;;;17.29;38.27
50550;BME280;36505;52.512;13.460;2023-10-08T12:35:40;102044.50;;;17.21;37.50
50550;BME280;36505;52.512;13.460;2023-10-08T12:38:06;102056.09;;;17.18;37.94
50550;BME280;36505;52.512;13.460;2023-10-08T12:40:31;102056.59;;;17.15;37.56
50550;BME280;36505;52.512;13.460;2023-10-08T12:43:17;102052.03;;;17.04;36.85
50550;BME280;36505;52.512;13.460;2023-10-08T12:45:45;102047.13;;;16.89;36.96
50550;BME280;36505;52.512;13.460;2023-10-08T12:48:18;102042.78;;;16.76;38.03
50550;BME280;36505;52.512;13.460;2023-10-08T12:50:43;102055.44;;;16.72;37.99
50550;BME280;36505;52.512;13.460;2023-10-08T12:53:09;102058.13;;;16.67;38.38
50550;BME280;36505;52.512;13.460;2023-10-08T12:55:37;102055.13;;;16.69;38.70
50550;BME280;36505;52.512;13.460;2023-10-08T12:58:05;102049.09;;;16.72;37.60
50550;BME280;36505;52.512;13.460;2023-10-08T13:00:36;102031.13;;;16.74;38.50
50550;BME280;36505;52.512;13.460;2023-10-08T13:03:03;102044.38;;;16.72;38.29
50550;BME280;36505;52.512;13.460;2023-10-08T13:05:31;102057.13;;;16.73;38.86
50550;BME280;36505;52.512;13.460;2023-10-08T13:07:58;102043.28;;;16.73;39.13